Language selection

Weather shortcuts

Strait of Georgia - north of Nanaimo: Past 24 Hour Conditions

 

South Brooks - 46132

05:00 AM PDT 13 April 2024Buoy position: 49.46N 127.53W
Disclaimer

This table is a summary of hourly weather conditions for the past 24 hours.
Please note that these observations might not always be representative of weather conditions over their associated marine area.

Date / Time
(PDT)
Wind(knots) Wave height(m) Wave period(s) Pressure(kPa) Air tempC) Water tempC)
13 April 2024
5:00 NNW 23 gusts 29 1.73 9.5 101.5 9 9
4:00 NNW 23 gusts 26 1.79 11.1 101.6 9 9
3:00 NW 24 gusts 27 1.97 10.5 101.5 9 9
2:00 NW 25 gusts 29 1.94 10.5 101.5 9 9
1:00 NW 22 gusts 26 1.81 11.1 101.6 9 9
0:00 NNW 23 gusts 28 2.01 9.5 101.6 9 9
12 April 2024
23:00 NNW 23 gusts 27 1.96 11.1 101.6 9 9
22:00 NNW 23 gusts 28 1.99 9.5 101.6 9 9
21:00 NNW 24 gusts 30 1.96 5.7 101.5 9 10
20:00 NNW 26 gusts 32 2.15 5.9 101.5 9 10
19:00 NNW 27 gusts 33 2.27 6.3 101.5 10 10
18:00 NNW 25 gusts 31 2.19 6.1 101.5 10 10
17:00 NW 26 gusts 31 2.08 10.5 101.5 10 10
16:00 NW 24 gusts 29 1.81 11.1 101.5 10 10
15:00 NW 24 gusts 28 1.65 11.1 101.5 10 10
14:00 NW 21 gusts 24 1.54 10.0 101.6 10 10
13:00 NW 18 gusts 22 1.58 11.1 101.6 10 10
12:00 NNW 19 gusts 24 1.51 11.1 101.6 9 9
11:00 NNW 19 gusts 23 1.51 11.1 101.5 9 9
10:00 NNW 19 gusts 23 1.35 11.8 101.5 9 9
9:00 NNW 17 gusts 19 1.47 10.0 101.5 9 9
8:00 NNW 17 gusts 20 1.58 11.1 101.4 9 9
7:00 NNW 15 gusts 18 1.47 10.0 101.4 8 9
6:00 N 12 gusts 14 1.49 11.8 101.4 8 9
5:00 N 11 gusts 15 1.46 11.8 101.3 8 9

Zoom-in to make a selection

Map of Pacific - South Coast marine weather areas South Nomad - 46036 Sentry Shoal - 46131 South Brooks - 46132 Halibut Bank - 46146 South Moresby - 46147 South Hecate Strait - 46185 West Sea Otter - 46204 La Perouse Bank - 46206 East Dellwood - 46207 Georgia Strait - 46303 English Bay – 46304 Discovery Island Esquimalt Harbour Kelp Reefs Malahat Race Rocks Lightstation Saturna Island Sheringham Point University of Victoria Victoria Gonzales Victoria Int'l Airport Ballenas Islands Campbell River Airport Comox Airport Entrance Island Fanny Island Nanaimo Airport Port Hardy Airport Sisters Islets Estevan Point Port Alberni Sartine Island Solander Island Tofino Airport Grief Point Howe Sound - Pam Rocks Powell River Airport Sechelt Squamish Airport Cape St.James Bella Bella Airport Bella Coola Airport Cathedral Point Herbert Island Point Atkinson Sand Heads Lightstation Tsawwassen Ferry Terminal Vancouver Int'l Airport Vancouver Harbour West Vancouver
Legend:
buoy Buoy
land station Land Station

Pacific - South Coast Area

Another Region

Date modified: